sensor_id;sensor_type;location;lat;lon;timestamp;P1;durP1;ratioP1;P2;durP2;ratioP2
70052;SDS011;57398;52.032;4.376;2023-08-31T00:02:15;1.27;;;0.63;;
70052;SDS011;57398;52.032;4.376;2023-08-31T00:05:04;1.20;;;0.60;;
70052;SDS011;57398;52.032;4.376;2023-08-31T00:07:53;1.33;;;0.68;;
70052;SDS011;57398;52.032;4.376;2023-08-31T00:10:41;1.20;;;0.60;;
70052;SDS011;57398;52.032;4.376;2023-08-31T00:13:29;1.20;;;0.60;;
70052;SDS011;57398;52.032;4.376;2023-08-31T00:16:17;1.20;;;0.60;;
70052;SDS011;57398;52.032;4.376;2023-08-31T00:19:06;1.10;;;0.50;;
70052;SDS011;57398;52.032;4.376;2023-08-31T00:21:55;1.20;;;0.60;;
70052;SDS011;57398;52.032;4.376;2023-08-31T00:24:43;1.20;;;0.60;;
70052;SDS011;57398;52.032;4.376;2023-08-31T00:27:31;1.42;;;0.70;;
70052;SDS011;57398;52.032;4.376;2023-08-31T00:30:19;1.23;;;0.67;;
70052;SDS011;57398;52.032;4.376;2023-08-31T00:33:08;1.30;;;0.70;;
70052;SDS011;57398;52.032;4.376;2023-08-31T00:35:59;1.27;;;0.60;;
70052;SDS011;57398;52.032;4.376;2023-08-31T00:38:49;1.05;;;0.50;;
70052;SDS011;57398;52.032;4.376;2023-08-31T00:41:37;1.20;;;0.60;;
70052;SDS011;57398;52.032;4.376;2023-08-31T00:44:26;1.50;;;0.90;;
70052;SDS011;57398;52.032;4.376;2023-08-31T00:47:14;1.55;;;0.85;;
70052;SDS011;57398;52.032;4.376;2023-08-31T00:50:04;1.20;;;0.60;;
70052;SDS011;57398;52.032;4.376;2023-08-31T00:52:56;1.50;;;0.70;;
70052;SDS011;57398;52.032;4.376;2023-08-31T00:55:44;1.60;;;0.77;;
70052;SDS011;57398;52.032;4.376;2023-08-31T00:58:34;1.20;;;0.60;;
70052;SDS011;57398;52.032;4.376;2023-08-31T01:01:23;1.40;;;0.80;;
70052;SDS011;57398;52.032;4.376;2023-08-31T01:04:18;1.10;;;0.55;;
70052;SDS011;57398;52.032;4.376;2023-08-31T01:07:14;1.20;;;0.60;;
70052;SDS011;57398;52.032;4.376;2023-08-31T01:10:08;1.75;;;0.90;;
70052;SDS011;57398;52.032;4.376;2023-08-31T01:13:02;1.60;;;1.00;;
70052;SDS011;57398;52.032;4.376;2023-08-31T01:15:53;1.33;;;0.73;;
70052;SDS011;57398;52.032;4.376;2023-08-31T01:18:44;2.60;;;0.88;;
70052;SDS011;57398;52.032;4.376;2023-08-31T01:21:37;1.15;;;0.52;;
70052;SDS011;57398;52.032;4.376;2023-08-31T01:24:29;1.40;;;0.82;;
70052;SDS011;57398;52.032;4.376;2023-08-31T01:27:18;1.30;;;0.60;;
70052;SDS011;57398;52.032;4.376;2023-08-31T01:30:08;1.25;;;0.60;;
70052;SDS011;57398;52.032;4.376;2023-08-31T01:32:56;1.30;;;0.70;;
70052;SDS011;57398;52.032;4.376;2023-08-31T01:35:45;1.10;;;0.50;;
70052;SDS011;57398;52.032;4.376;2023-08-31T01:38:39;1.27;;;0.60;;
70052;SDS011;57398;52.032;4.376;2023-08-31T01:41:33;1.20;;;0.70;;
70052;SDS011;57398;52.032;4.376;2023-08-31T01:44:22;2.30;;;0.82;;
70052;SDS011;57398;52.032;4.376;2023-08-31T01:47:13;1.23;;;0.60;;
70052;SDS011;57398;52.032;4.376;2023-08-31T01:50:01;1.30;;;0.70;;
70052;SDS011;57398;52.032;4.376;2023-08-31T01:52:49;2.28;;;1.13;;
70052;SDS011;57398;52.032;4.376;2023-08-31T01:55:40;1.20;;;0.70;;
70052;SDS011;57398;52.032;4.376;2023-08-31T01:58:29;1.63;;;0.80;;
70052;SDS011;57398;52.032;4.376;2023-08-31T02:01:17;1.20;;;0.68;;
70052;SDS011;57398;52.032;4.376;2023-08-31T02:04:05;1.30;;;0.70;;
70052;SDS011;57398;52.032;4.376;2023-08-31T02:06:54;1.23;;;0.70;;
70052;SDS011;57398;52.032;4.376;2023-08-31T02:09:42;2.33;;;0.70;;
70052;SDS011;57398;52.032;4.376;2023-08-31T02:12:30;1.25;;;0.60;;
70052;SDS011;57398;52.032;4.376;2023-08-31T02:15:19;1.50;;;0.80;;
70052;SDS011;57398;52.032;4.376;2023-08-31T02:18:07;1.52;;;0.57;;
70052;SDS011;57398;52.032;4.376;2023-08-31T02:20:56;1.10;;;0.50;;
70052;SDS011;57398;52.032;4.376;2023-08-31T02:23:44;1.00;;;0.40;;
70052;SDS011;57398;52.032;4.376;2023-08-31T02:26:33;1.10;;;0.50;;
70052;SDS011;57398;52.032;4.376;2023-08-31T02:29:23;1.10;;;0.50;;
70052;SDS011;57398;52.032;4.376;2023-08-31T02:32:13;0.95;;;0.40;;
70052;SDS011;57398;52.032;4.376;2023-08-31T02:35:01;1.00;;;0.50;;
70052;SDS011;57398;52.032;4.376;2023-08-31T02:37:51;1.23;;;0.67;;
70052;SDS011;57398;52.032;4.376;2023-08-31T02:40:40;1.20;;;0.60;;
70052;SDS011;57398;52.032;4.376;2023-08-31T02:43:28;1.20;;;0.60;;
70052;SDS011;57398;52.032;4.376;2023-08-31T02:46:16;1.30;;;0.77;;
70052;SDS011;57398;52.032;4.376;2023-08-31T02:49:06;1.20;;;0.65;;
70052;SDS011;57398;52.032;4.376;2023-08-31T02:51:54;1.10;;;0.50;;
70052;SDS011;57398;52.032;4.376;2023-08-31T02:54:42;1.20;;;0.60;;
70052;SDS011;57398;52.032;4.376;2023-08-31T02:57:31;1.40;;;0.70;;
70052;SDS011;57398;52.032;4.376;2023-08-31T03:00:19;1.33;;;0.65;;
70052;SDS011;57398;52.032;4.376;2023-08-31T03:03:08;1.40;;;0.80;;
70052;SDS011;57398;52.032;4.376;2023-08-31T03:05:58;1.03;;;0.50;;
70052;SDS011;57398;52.032;4.376;2023-08-31T03:08:46;1.13;;;0.52;;
70052;SDS011;57398;52.032;4.376;2023-08-31T03:11:35;1.40;;;0.70;;
70052;SDS011;57398;52.032;4.376;2023-08-31T03:14:23;1.30;;;0.60;;
70052;SDS011;57398;52.032;4.376;2023-08-31T03:17:11;2.35;;;0.90;;
70052;SDS011;57398;52.032;4.376;2023-08-31T03:19:59;6.17;;;1.33;;
70052;SDS011;57398;52.032;4.376;2023-08-31T03:22:49;1.83;;;1.05;;
70052;SDS011;57398;52.032;4.376;2023-08-31T03:25:37;1.58;;;0.73;;
70052;SDS011;57398;52.032;4.376;2023-08-31T03:28:25;3.42;;;1.20;;
70052;SDS011;57398;52.032;4.376;2023-08-31T03:31:13;2.63;;;1.08;;
70052;SDS011;57398;52.032;4.376;2023-08-31T03:34:02;2.30;;;0.87;;
70052;SDS011;57398;52.032;4.376;2023-08-31T03:36:50;4.55;;;1.00;;
70052;SDS011;57398;52.032;4.376;2023-08-31T03:39:39;2.30;;;1.15;;
70052;SDS011;57398;52.032;4.376;2023-08-31T03:42:28;2.38;;;1.27;;
70052;SDS011;57398;52.032;4.376;2023-08-31T03:45:16;2.45;;;1.10;;
70052;SDS011;57398;52.032;4.376;2023-08-31T03:48:05;7.80;;;1.43;;
70052;SDS011;57398;52.032;4.376;2023-08-31T03:50:53;2.30;;;1.10;;
70052;SDS011;57398;52.032;4.376;2023-08-31T03:53:42;3.00;;;1.20;;
70052;SDS011;57398;52.032;4.376;2023-08-31T03:56:33;4.32;;;1.77;;
70052;SDS011;57398;52.032;4.376;2023-08-31T03:59:22;2.55;;;1.20;;
70052;SDS011;57398;52.032;4.376;2023-08-31T04:02:10;4.27;;;1.37;;
70052;SDS011;57398;52.032;4.376;2023-08-31T04:04:58;2.97;;;1.20;;
70052;SDS011;57398;52.032;4.376;2023-08-31T04:07:46;2.47;;;1.17;;
70052;SDS011;57398;52.032;4.376;2023-08-31T04:10:34;3.05;;;1.10;;
70052;SDS011;57398;52.032;4.376;2023-08-31T04:13:24;3.65;;;1.40;;
70052;SDS011;57398;52.032;4.376;2023-08-31T04:16:12;4.87;;;1.20;;
70052;SDS011;57398;52.032;4.376;2023-08-31T04:19:00;3.65;;;1.42;;
70052;SDS011;57398;52.032;4.376;2023-08-31T04:21:49;5.63;;;1.40;;
70052;SDS011;57398;52.032;4.376;2023-08-31T04:24:37;5.05;;;1.30;;
70052;SDS011;57398;52.032;4.376;2023-08-31T04:27:25;3.25;;;1.10;;
70052;SDS011;57398;52.032;4.376;2023-08-31T04:30:15;5.00;;;1.53;;
70052;SDS011;57398;52.032;4.376;2023-08-31T04:33:04;4.53;;;1.50;;
70052;SDS011;57398;52.032;4.376;2023-08-31T04:35:53;3.17;;;1.30;;
70052;SDS011;57398;52.032;4.376;2023-08-31T04:38:41;2.70;;;1.17;;
70052;SDS011;57398;52.032;4.376;2023-08-31T04:41:29;2.72;;;1.13;;
70052;SDS011;57398;52.032;4.376;2023-08-31T04:44:17;3.23;;;1.40;;
70052;SDS011;57398;52.032;4.376;2023-08-31T04:47:07;4.10;;;1.33;;
70052;SDS011;57398;52.032;4.376;2023-08-31T04:49:55;3.20;;;1.30;;
70052;SDS011;57398;52.032;4.376;2023-08-31T04:52:45;4.55;;;1.25;;
70052;SDS011;57398;52.032;4.376;2023-08-31T04:55:33;5.45;;;1.35;;
70052;SDS011;57398;52.032;4.376;2023-08-31T04:58:22;6.07;;;1.30;;
70052;SDS011;57398;52.032;4.376;2023-08-31T05:01:10;3.25;;;1.40;;
70052;SDS011;57398;52.032;4.376;2023-08-31T05:04:00;2.72;;;1.20;;
70052;SDS011;57398;52.032;4.376;2023-08-31T05:06:49;3.17;;;1.15;;
70052;SDS011;57398;52.032;4.376;2023-08-31T05:09:37;8.23;;;1.40;;
70052;SDS011;57398;52.032;4.376;2023-08-31T05:12:25;3.60;;;1.10;;
70052;SDS011;57398;52.032;4.376;2023-08-31T05:15:13;3.45;;;1.13;;
70052;SDS011;57398;52.032;4.376;2023-08-31T05:18:01;3.97;;;1.30;;
70052;SDS011;57398;52.032;4.376;2023-08-31T05:20:51;3.35;;;1.27;;
70052;SDS011;57398;52.032;4.376;2023-08-31T05:23:39;9.07;;;1.20;;
70052;SDS011;57398;52.032;4.376;2023-08-31T05:26:28;3.43;;;1.37;;
70052;SDS011;57398;52.032;4.376;2023-08-31T05:29:16;5.32;;;1.20;;
70052;SDS011;57398;52.032;4.376;2023-08-31T05:32:04;4.50;;;1.10;;
70052;SDS011;57398;52.032;4.376;2023-08-31T05:34:53;2.60;;;1.13;;
70052;SDS011;57398;52.032;4.376;2023-08-31T05:37:43;2.10;;;0.90;;
70052;SDS011;57398;52.032;4.376;2023-08-31T05:40:31;4.50;;;1.20;;
70052;SDS011;57398;52.032;4.376;2023-08-31T05:43:20;4.53;;;1.20;;
70052;SDS011;57398;52.032;4.376;2023-08-31T05:46:08;3.60;;;1.40;;
70052;SDS011;57398;52.032;4.376;2023-08-31T05:48:57;3.65;;;1.20;;
70052;SDS011;57398;52.032;4.376;2023-08-31T05:51:46;2.75;;;1.20;;
70052;SDS011;57398;52.032;4.376;2023-08-31T05:54:36;5.07;;;1.10;;
70052;SDS011;57398;52.032;4.376;2023-08-31T05:57:25;3.58;;;1.17;;
70052;SDS011;57398;52.032;4.376;2023-08-31T06:00:14;2.72;;;1.20;;
70052;SDS011;57398;52.032;4.376;2023-08-31T06:03:03;5.13;;;1.10;;
70052;SDS011;57398;52.032;4.376;2023-08-31T06:05:52;3.22;;;1.40;;
70052;SDS011;57398;52.032;4.376;2023-08-31T06:08:40;2.60;;;1.10;;
70052;SDS011;57398;52.032;4.376;2023-08-31T06:11:30;3.15;;;1.00;;
70052;SDS011;57398;52.032;4.376;2023-08-31T06:14:19;3.88;;;0.85;;
70052;SDS011;57398;52.032;4.376;2023-08-31T06:17:07;5.93;;;1.02;;
70052;SDS011;57398;52.032;4.376;2023-08-31T06:19:58;2.35;;;0.73;;
70052;SDS011;57398;52.032;4.376;2023-08-31T06:22:46;3.60;;;1.20;;
70052;SDS011;57398;52.032;4.376;2023-08-31T06:25:34;4.00;;;0.90;;
70052;SDS011;57398;52.032;4.376;2023-08-31T06:28:24;2.42;;;1.00;;
70052;SDS011;57398;52.032;4.376;2023-08-31T06:31:12;4.30;;;1.05;;
70052;SDS011;57398;52.032;4.376;2023-08-31T06:34:00;4.28;;;1.10;;
70052;SDS011;57398;52.032;4.376;2023-08-31T06:36:49;4.10;;;1.20;;
70052;SDS011;57398;52.032;4.376;2023-08-31T06:39:37;3.63;;;1.20;;
70052;SDS011;57398;52.032;4.376;2023-08-31T06:42:25;5.10;;;1.30;;
70052;SDS011;57398;52.032;4.376;2023-08-31T06:45:15;4.75;;;1.10;;
70052;SDS011;57398;52.032;4.376;2023-08-31T06:48:06;2.92;;;1.10;;
70052;SDS011;57398;52.032;4.376;2023-08-31T06:50:54;4.00;;;1.03;;
70052;SDS011;57398;52.032;4.376;2023-08-31T06:53:43;4.95;;;1.00;;
70052;SDS011;57398;52.032;4.376;2023-08-31T06:56:31;3.22;;;0.90;;
70052;SDS011;57398;52.032;4.376;2023-08-31T06:59:20;2.20;;;0.80;;
70052;SDS011;57398;52.032;4.376;2023-08-31T07:02:10;2.45;;;0.80;;
70052;SDS011;57398;52.032;4.376;2023-08-31T07:04:58;2.60;;;0.70;;
70052;SDS011;57398;52.032;4.376;2023-08-31T07:07:46;3.33;;;1.00;;
70052;SDS011;57398;52.032;4.376;2023-08-31T07:10:35;2.20;;;0.90;;
70052;SDS011;57398;52.032;4.376;2023-08-31T07:13:23;3.05;;;0.80;;
70052;SDS011;57398;52.032;4.376;2023-08-31T07:16:11;4.90;;;0.70;;
70052;SDS011;57398;52.032;4.376;2023-08-31T07:19:01;3.47;;;0.70;;
70052;SDS011;57398;52.032;4.376;2023-08-31T07:21:50;3.35;;;0.52;;
70052;SDS011;57398;52.032;4.376;2023-08-31T07:24:38;3.10;;;0.70;;
70052;SDS011;57398;52.032;4.376;2023-08-31T07:27:27;3.03;;;0.80;;
70052;SDS011;57398;52.032;4.376;2023-08-31T07:30:15;2.50;;;0.93;;
70052;SDS011;57398;52.032;4.376;2023-08-31T07:33:03;3.03;;;0.90;;
70052;SDS011;57398;52.032;4.376;2023-08-31T07:36:04;2.50;;;0.88;;
70052;SDS011;57398;52.032;4.376;2023-08-31T07:38:53;3.25;;;1.10;;
70052;SDS011;57398;52.032;4.376;2023-08-31T07:41:41;2.47;;;1.10;;
70052;SDS011;57398;52.032;4.376;2023-08-31T07:44:29;2.42;;;0.77;;
70052;SDS011;57398;52.032;4.376;2023-08-31T07:47:17;5.60;;;0.80;;
70052;SDS011;57398;52.032;4.376;2023-08-31T07:50:06;3.40;;;0.90;;
70052;SDS011;57398;52.032;4.376;2023-08-31T07:52:56;2.72;;;0.80;;
70052;SDS011;57398;52.032;4.376;2023-08-31T07:55:50;3.13;;;0.70;;
70052;SDS011;57398;52.032;4.376;2023-08-31T07:58:40;2.83;;;0.80;;
70052;SDS011;57398;52.032;4.376;2023-08-31T08:01:29;2.50;;;0.70;;
70052;SDS011;57398;52.032;4.376;2023-08-31T08:04:17;3.67;;;0.70;;
70052;SDS011;57398;52.032;4.376;2023-08-31T08:07:06;4.20;;;0.80;;
70052;SDS011;57398;52.032;4.376;2023-08-31T08:09:57;4.28;;;0.93;;
70052;SDS011;57398;52.032;4.376;2023-08-31T08:12:46;3.53;;;0.88;;
70052;SDS011;57398;52.032;4.376;2023-08-31T08:15:34;2.70;;;0.90;;
70052;SDS011;57398;52.032;4.376;2023-08-31T08:18:22;3.05;;;0.98;;
70052;SDS011;57398;52.032;4.376;2023-08-31T08:21:10;3.72;;;0.70;;
70052;SDS011;57398;52.032;4.376;2023-08-31T08:23:58;2.35;;;0.70;;
70052;SDS011;57398;52.032;4.376;2023-08-31T08:26:49;2.17;;;0.70;;
70052;SDS011;57398;52.032;4.376;2023-08-31T08:29:38;2.03;;;0.60;;
70052;SDS011;57398;52.032;4.376;2023-08-31T08:32:26;2.25;;;0.70;;
70052;SDS011;57398;52.032;4.376;2023-08-31T08:35:14;2.92;;;0.77;;
70052;SDS011;57398;52.032;4.376;2023-08-31T08:38:03;3.17;;;0.85;;
70052;SDS011;57398;52.032;4.376;2023-08-31T08:40:51;3.47;;;0.98;;
70052;SDS011;57398;52.032;4.376;2023-08-31T08:43:41;3.27;;;1.13;;
70052;SDS011;57398;52.032;4.376;2023-08-31T08:46:32;3.88;;;0.95;;
70052;SDS011;57398;52.032;4.376;2023-08-31T08:49:21;1.98;;;0.70;;
70052;SDS011;57398;52.032;4.376;2023-08-31T08:52:10;3.20;;;0.98;;
70052;SDS011;57398;52.032;4.376;2023-08-31T08:55:00;3.17;;;0.80;;
70052;SDS011;57398;52.032;4.376;2023-08-31T08:57:49;2.10;;;0.60;;
70052;SDS011;57398;52.032;4.376;2023-08-31T09:00:38;2.90;;;0.88;;
70052;SDS011;57398;52.032;4.376;2023-08-31T09:03:28;3.25;;;0.90;;
70052;SDS011;57398;52.032;4.376;2023-08-31T09:06:16;2.92;;;0.80;;
70052;SDS011;57398;52.032;4.376;2023-08-31T09:09:05;2.55;;;0.60;;
70052;SDS011;57398;52.032;4.376;2023-08-31T09:11:56;3.88;;;0.80;;
70052;SDS011;57398;52.032;4.376;2023-08-31T09:14:56;2.33;;;0.80;;
70052;SDS011;57398;52.032;4.376;2023-08-31T09:17:45;3.15;;;0.63;;
70052;SDS011;57398;52.032;4.376;2023-08-31T09:20:42;2.20;;;0.80;;
70052;SDS011;57398;52.032;4.376;2023-08-31T09:23:32;4.03;;;0.60;;
70052;SDS011;57398;52.032;4.376;2023-08-31T09:26:20;4.28;;;0.70;;
70052;SDS011;57398;52.032;4.376;2023-08-31T09:29:08;2.53;;;0.60;;
70052;SDS011;57398;52.032;4.376;2023-08-31T09:31:58;3.28;;;0.70;;
70052;SDS011;57398;52.032;4.376;2023-08-31T09:34:47;3.85;;;0.93;;
70052;SDS011;57398;52.032;4.376;2023-08-31T09:37:40;1.75;;;0.47;;
70052;SDS011;57398;52.032;4.376;2023-08-31T09:40:28;2.67;;;0.60;;
70052;SDS011;57398;52.032;4.376;2023-08-31T09:43:19;2.27;;;0.70;;
70052;SDS011;57398;52.032;4.376;2023-08-31T09:46:08;3.67;;;0.73;;
70052;SDS011;57398;52.032;4.376;2023-08-31T09:48:57;3.22;;;0.60;;
70052;SDS011;57398;52.032;4.376;2023-08-31T09:51:49;3.30;;;0.60;;
70052;SDS011;57398;52.032;4.376;2023-08-31T09:54:37;3.10;;;0.80;;
70052;SDS011;57398;52.032;4.376;2023-08-31T09:57:27;2.10;;;0.90;;
70052;SDS011;57398;52.032;4.376;2023-08-31T10:00:30;2.45;;;0.60;;
70052;SDS011;57398;52.032;4.376;2023-08-31T10:03:19;2.20;;;0.80;;
70052;SDS011;57398;52.032;4.376;2023-08-31T10:06:08;3.50;;;0.90;;
70052;SDS011;57398;52.032;4.376;2023-08-31T10:08:58;2.80;;;0.60;;
70052;SDS011;57398;52.032;4.376;2023-08-31T10:11:47;2.83;;;0.60;;
70052;SDS011;57398;52.032;4.376;2023-08-31T10:14:36;2.72;;;0.60;;
70052;SDS011;57398;52.032;4.376;2023-08-31T10:17:25;4.78;;;0.60;;
70052;SDS011;57398;52.032;4.376;2023-08-31T10:20:16;2.30;;;0.63;;
70052;SDS011;57398;52.032;4.376;2023-08-31T10:23:05;2.38;;;0.57;;
70052;SDS011;57398;52.032;4.376;2023-08-31T10:26:02;2.07;;;0.50;;
70052;SDS011;57398;52.032;4.376;2023-08-31T10:28:51;3.40;;;0.60;;
70052;SDS011;57398;52.032;4.376;2023-08-31T10:31:40;2.33;;;0.50;;
70052;SDS011;57398;52.032;4.376;2023-08-31T10:34:34;2.08;;;0.50;;
70052;SDS011;57398;52.032;4.376;2023-08-31T10:37:23;3.15;;;0.60;;
70052;SDS011;57398;52.032;4.376;2023-08-31T10:40:15;3.87;;;0.70;;
70052;SDS011;57398;52.032;4.376;2023-08-31T10:43:15;1.88;;;0.60;;
70052;SDS011;57398;52.032;4.376;2023-08-31T10:46:04;2.15;;;0.50;;
70052;SDS011;57398;52.032;4.376;2023-08-31T10:49:12;5.13;;;0.60;;
70052;SDS011;57398;52.032;4.376;2023-08-31T10:52:14;1.92;;;0.50;;
70052;SDS011;57398;52.032;4.376;2023-08-31T10:55:14;2.17;;;0.77;;
70052;SDS011;57398;52.032;4.376;2023-08-31T10:58:09;3.05;;;0.70;;
70052;SDS011;57398;52.032;4.376;2023-08-31T11:00:58;1.75;;;0.55;;
70052;SDS011;57398;52.032;4.376;2023-08-31T11:03:59;3.08;;;0.63;;
70052;SDS011;57398;52.032;4.376;2023-08-31T11:06:47;2.38;;;0.63;;
70052;SDS011;57398;52.032;4.376;2023-08-31T11:09:36;1.83;;;0.70;;
70052;SDS011;57398;52.032;4.376;2023-08-31T11:12:24;2.58;;;0.70;;
70052;SDS011;57398;52.032;4.376;2023-08-31T11:15:12;2.63;;;0.52;;
70052;SDS011;57398;52.032;4.376;2023-08-31T11:18:03;1.98;;;0.55;;
70052;SDS011;57398;52.032;4.376;2023-08-31T11:20:53;4.22;;;0.60;;
70052;SDS011;57398;52.032;4.376;2023-08-31T11:23:42;2.57;;;0.77;;
70052;SDS011;57398;52.032;4.376;2023-08-31T11:26:31;2.60;;;0.68;;
70052;SDS011;57398;52.032;4.376;2023-08-31T11:29:19;1.75;;;0.50;;
70052;SDS011;57398;52.032;4.376;2023-08-31T11:32:07;3.42;;;0.80;;
70052;SDS011;57398;52.032;4.376;2023-08-31T11:34:57;2.40;;;0.90;;
70052;SDS011;57398;52.032;4.376;2023-08-31T11:37:49;2.70;;;0.80;;
70052;SDS011;57398;52.032;4.376;2023-08-31T11:40:38;3.92;;;0.85;;
70052;SDS011;57398;52.032;4.376;2023-08-31T11:43:26;2.65;;;0.60;;
70052;SDS011;57398;52.032;4.376;2023-08-31T11:46:14;3.63;;;0.70;;
70052;SDS011;57398;52.032;4.376;2023-08-31T11:49:06;2.55;;;0.55;;
70052;SDS011;57398;52.032;4.376;2023-08-31T11:51:56;1.77;;;0.53;;
70052;SDS011;57398;52.032;4.376;2023-08-31T11:54:45;3.10;;;0.70;;
70052;SDS011;57398;52.032;4.376;2023-08-31T11:57:33;2.40;;;0.70;;
70052;SDS011;57398;52.032;4.376;2023-08-31T12:00:22;1.42;;;0.50;;
70052;SDS011;57398;52.032;4.376;2023-08-31T12:03:11;2.70;;;0.77;;
70052;SDS011;57398;52.032;4.376;2023-08-31T12:06:00;2.70;;;0.80;;
70052;SDS011;57398;52.032;4.376;2023-08-31T12:08:51;3.25;;;0.70;;
70052;SDS011;57398;52.032;4.376;2023-08-31T12:11:40;2.55;;;0.85;;
70052;SDS011;57398;52.032;4.376;2023-08-31T12:14:29;3.30;;;0.73;;
70052;SDS011;57398;52.032;4.376;2023-08-31T12:17:19;2.55;;;0.65;;
70052;SDS011;57398;52.032;4.376;2023-08-31T12:20:08;2.53;;;0.70;;
70052;SDS011;57398;52.032;4.376;2023-08-31T12:22:59;3.47;;;1.17;;
70052;SDS011;57398;52.032;4.376;2023-08-31T12:25:49;2.50;;;0.70;;
70052;SDS011;57398;52.032;4.376;2023-08-31T12:28:38;3.08;;;0.88;;
70052;SDS011;57398;52.032;4.376;2023-08-31T12:31:27;3.75;;;0.80;;
70052;SDS011;57398;52.032;4.376;2023-08-31T12:34:16;2.77;;;0.77;;
70052;SDS011;57398;52.032;4.376;2023-08-31T12:37:04;2.95;;;0.80;;
70052;SDS011;57398;52.032;4.376;2023-08-31T12:39:52;5.10;;;1.00;;
70052;SDS011;57398;52.032;4.376;2023-08-31T12:42:42;4.07;;;0.80;;
70052;SDS011;57398;52.032;4.376;2023-08-31T12:45:30;2.88;;;0.70;;
70052;SDS011;57398;52.032;4.376;2023-08-31T12:48:18;4.43;;;0.90;;
70052;SDS011;57398;52.032;4.376;2023-08-31T12:51:07;3.35;;;0.70;;
70052;SDS011;57398;52.032;4.376;2023-08-31T12:53:55;2.55;;;0.60;;
70052;SDS011;57398;52.032;4.376;2023-08-31T12:56:43;3.28;;;0.80;;
70052;SDS011;57398;52.032;4.376;2023-08-31T12:59:33;2.60;;;0.85;;
70052;SDS011;57398;52.032;4.376;2023-08-31T13:02:21;3.30;;;0.83;;
70052;SDS011;57398;52.032;4.376;2023-08-31T13:05:09;3.03;;;0.77;;
70052;SDS011;57398;52.032;4.376;2023-08-31T13:07:58;4.53;;;0.90;;
70052;SDS011;57398;52.032;4.376;2023-08-31T13:10:50;2.70;;;0.80;;
70052;SDS011;57398;52.032;4.376;2023-08-31T13:13:40;2.45;;;0.73;;
70052;SDS011;57398;52.032;4.376;2023-08-31T13:16:29;2.80;;;0.80;;
70052;SDS011;57398;52.032;4.376;2023-08-31T13:19:18;2.58;;;0.68;;
70052;SDS011;57398;52.032;4.376;2023-08-31T13:22:07;4.38;;;0.82;;
70052;SDS011;57398;52.032;4.376;2023-08-31T13:24:55;3.03;;;0.88;;
70052;SDS011;57398;52.032;4.376;2023-08-31T13:27:43;3.03;;;0.88;;
70052;SDS011;57398;52.032;4.376;2023-08-31T13:30:32;2.13;;;0.73;;
70052;SDS011;57398;52.032;4.376;2023-08-31T13:33:21;3.35;;;0.90;;
70052;SDS011;57398;52.032;4.376;2023-08-31T13:36:10;3.85;;;0.90;;
70052;SDS011;57398;52.032;4.376;2023-08-31T13:38:58;2.17;;;0.73;;
70052;SDS011;57398;52.032;4.376;2023-08-31T13:41:46;4.30;;;1.13;;
70052;SDS011;57398;52.032;4.376;2023-08-31T13:44:35;3.23;;;1.00;;
70052;SDS011;57398;52.032;4.376;2023-08-31T13:47:23;4.07;;;0.90;;
70052;SDS011;57398;52.032;4.376;2023-08-31T13:50:13;2.60;;;0.82;;
70052;SDS011;57398;52.032;4.376;2023-08-31T13:53:01;3.00;;;0.90;;
70052;SDS011;57398;52.032;4.376;2023-08-31T13:55:50;2.22;;;0.75;;
70052;SDS011;57398;52.032;4.376;2023-08-31T13:58:38;2.90;;;0.90;;
70052;SDS011;57398;52.032;4.376;2023-08-31T14:01:27;2.90;;;1.00;;
70052;SDS011;57398;52.032;4.376;2023-08-31T14:04:16;3.47;;;0.82;;
70052;SDS011;57398;52.032;4.376;2023-08-31T14:07:06;3.28;;;0.80;;
70052;SDS011;57398;52.032;4.376;2023-08-31T14:09:54;3.35;;;0.98;;
70052;SDS011;57398;52.032;4.376;2023-08-31T14:12:42;2.60;;;0.80;;
70052;SDS011;57398;52.032;4.376;2023-08-31T14:15:35;3.13;;;0.90;;
70052;SDS011;57398;52.032;4.376;2023-08-31T14:18:26;5.07;;;1.10;;
70052;SDS011;57398;52.032;4.376;2023-08-31T14:21:16;2.80;;;1.00;;
70052;SDS011;57398;52.032;4.376;2023-08-31T14:24:06;3.03;;;0.85;;
70052;SDS011;57398;52.032;4.376;2023-08-31T14:26:54;3.03;;;1.07;;
70052;SDS011;57398;52.032;4.376;2023-08-31T14:29:42;2.70;;;0.90;;
70052;SDS011;57398;52.032;4.376;2023-08-31T14:32:30;3.58;;;1.00;;
70052;SDS011;57398;52.032;4.376;2023-08-31T14:35:18;3.75;;;0.90;;
70052;SDS011;57398;52.032;4.376;2023-08-31T14:38:10;3.55;;;1.02;;
70052;SDS011;57398;52.032;4.376;2023-08-31T14:40:59;5.00;;;1.00;;
70052;SDS011;57398;52.032;4.376;2023-08-31T14:43:48;2.83;;;0.90;;
70052;SDS011;57398;52.032;4.376;2023-08-31T14:46:36;3.65;;;0.80;;
70052;SDS011;57398;52.032;4.376;2023-08-31T14:49:26;2.90;;;0.82;;
70052;SDS011;57398;52.032;4.376;2023-08-31T14:52:14;2.65;;;0.90;;
70052;SDS011;57398;52.032;4.376;2023-08-31T14:55:02;3.70;;;1.13;;
70052;SDS011;57398;52.032;4.376;2023-08-31T14:57:52;3.15;;;1.05;;
70052;SDS011;57398;52.032;4.376;2023-08-31T15:00:40;3.97;;;1.42;;
70052;SDS011;57398;52.032;4.376;2023-08-31T15:03:29;2.20;;;0.60;;
70052;SDS011;57398;52.032;4.376;2023-08-31T15:06:17;3.00;;;0.90;;
70052;SDS011;57398;52.032;4.376;2023-08-31T15:09:05;2.43;;;0.80;;
70052;SDS011;57398;52.032;4.376;2023-08-31T15:11:54;5.53;;;1.10;;
70052;SDS011;57398;52.032;4.376;2023-08-31T15:14:43;3.78;;;1.10;;
70052;SDS011;57398;52.032;4.376;2023-08-31T15:17:31;3.15;;;1.13;;
70052;SDS011;57398;52.032;4.376;2023-08-31T15:20:19;3.20;;;1.00;;
70052;SDS011;57398;52.032;4.376;2023-08-31T15:23:07;4.67;;;1.10;;
70052;SDS011;57398;52.032;4.376;2023-08-31T15:25:58;3.97;;;1.08;;
70052;SDS011;57398;52.032;4.376;2023-08-31T15:28:47;3.55;;;0.95;;
70052;SDS011;57398;52.032;4.376;2023-08-31T15:31:37;2.70;;;0.88;;
70052;SDS011;57398;52.032;4.376;2023-08-31T15:34:25;4.07;;;1.00;;
70052;SDS011;57398;52.032;4.376;2023-08-31T15:37:13;3.13;;;0.90;;
70052;SDS011;57398;52.032;4.376;2023-08-31T15:40:02;2.90;;;1.05;;
70052;SDS011;57398;52.032;4.376;2023-08-31T15:42:50;2.88;;;0.90;;
70052;SDS011;57398;52.032;4.376;2023-08-31T15:45:39;4.57;;;1.00;;
70052;SDS011;57398;52.032;4.376;2023-08-31T15:48:33;3.60;;;1.10;;
70052;SDS011;57398;52.032;4.376;2023-08-31T15:51:22;3.53;;;1.00;;
70052;SDS011;57398;52.032;4.376;2023-08-31T15:54:10;4.47;;;1.05;;
70052;SDS011;57398;52.032;4.376;2023-08-31T15:56:58;2.97;;;0.95;;
70052;SDS011;57398;52.032;4.376;2023-08-31T15:59:47;2.72;;;0.93;;
70052;SDS011;57398;52.032;4.376;2023-08-31T16:02:35;2.90;;;0.93;;
70052;SDS011;57398;52.032;4.376;2023-08-31T16:05:24;4.30;;;1.00;;
70052;SDS011;57398;52.032;4.376;2023-08-31T16:08:13;3.17;;;0.80;;
70052;SDS011;57398;52.032;4.376;2023-08-31T16:11:02;4.47;;;0.95;;
70052;SDS011;57398;52.032;4.376;2023-08-31T16:13:51;3.47;;;1.05;;
70052;SDS011;57398;52.032;4.376;2023-08-31T16:16:39;3.03;;;1.00;;
70052;SDS011;57398;52.032;4.376;2023-08-31T16:19:29;3.37;;;1.10;;
70052;SDS011;57398;52.032;4.376;2023-08-31T16:22:18;3.40;;;1.00;;
70052;SDS011;57398;52.032;4.376;2023-08-31T16:25:07;4.10;;;1.20;;
70052;SDS011;57398;52.032;4.376;2023-08-31T16:27:57;4.22;;;1.10;;
70052;SDS011;57398;52.032;4.376;2023-08-31T16:30:45;3.70;;;1.00;;
70052;SDS011;57398;52.032;4.376;2023-08-31T16:33:34;3.80;;;1.00;;
70052;SDS011;57398;52.032;4.376;2023-08-31T16:36:22;4.07;;;0.90;;
70052;SDS011;57398;52.032;4.376;2023-08-31T16:39:12;5.18;;;1.10;;
70052;SDS011;57398;52.032;4.376;2023-08-31T16:42:00;4.07;;;1.10;;
70052;SDS011;57398;52.032;4.376;2023-08-31T16:44:49;4.57;;;1.10;;
70052;SDS011;57398;52.032;4.376;2023-08-31T16:47:38;5.53;;;1.20;;
70052;SDS011;57398;52.032;4.376;2023-08-31T16:50:29;3.83;;;1.10;;
70052;SDS011;57398;52.032;4.376;2023-08-31T16:53:18;3.60;;;0.90;;
70052;SDS011;57398;52.032;4.376;2023-08-31T16:56:08;5.00;;;1.17;;
70052;SDS011;57398;52.032;4.376;2023-08-31T16:58:56;3.80;;;1.20;;
70052;SDS011;57398;52.032;4.376;2023-08-31T17:01:45;4.60;;;1.37;;